Terminal Aerodrome Forecast
Issued by NWS Detroit/Pontiac, MI

Home | Current Version | Previous Version | Text Only | Print | Product List | Glossary On
Versions: 1 2 3 4 5 6 7 8 9 10 11 12 13 14 15 16 17
000
FTUS43 KDTX 270307 AAA
TAFFNT
TAF AMD
KFNT 270307Z 2703/2724 20010KT P6SM SCT060 BKN120
      TEMPO 2703/2705 5SM SHRA OVC040
     FM271000 22007KT 6SM HZ BKN015
     FM271600 24013G20KT P6SM BKN040=

USA.gov is the U.S. government's official web portal to all federal, state and local government web resources and services.